sensor_id;sensor_type;location;lat;lon;timestamp;temperature;humidity
25342;DHT22;13298;48.792;9.154;2022-12-07T00:00:41;3.20;99.90
25342;DHT22;13298;48.792;9.154;2022-12-07T00:03:07;3.20;99.90
25342;DHT22;13298;48.792;9.154;2022-12-07T00:05:32;3.20;99.90
25342;DHT22;13298;48.792;9.154;2022-12-07T00:07:58;3.20;99.90
25342;DHT22;13298;48.792;9.154;2022-12-07T00:10:24;3.10;99.90
25342;DHT22;13298;48.792;9.154;2022-12-07T00:12:49;3.20;99.90
25342;DHT22;13298;48.792;9.154;2022-12-07T00:15:15;3.20;99.90
25342;DHT22;13298;48.792;9.154;2022-12-07T00:17:41;3.20;99.90
25342;DHT22;13298;48.792;9.154;2022-12-07T00:20:06;3.20;99.90
25342;DHT22;13298;48.792;9.154;2022-12-07T00:22:32;3.20;99.90
25342;DHT22;13298;48.792;9.154;2022-12-07T00:24:58;3.10;99.90
25342;DHT22;13298;48.792;9.154;2022-12-07T00:27:23;3.10;99.90
25342;DHT22;13298;48.792;9.154;2022-12-07T00:29:49;3.10;99.90
25342;DHT22;13298;48.792;9.154;2022-12-07T00:32:14;3.10;99.90
25342;DHT22;13298;48.792;9.154;2022-12-07T00:34:40;3.10;99.90
25342;DHT22;13298;48.792;9.154;2022-12-07T00:37:06;3.10;99.90
25342;DHT22;13298;48.792;9.154;2022-12-07T00:39:31;3.10;99.90
25342;DHT22;13298;48.792;9.154;2022-12-07T00:41:57;3.10;99.90
25342;DHT22;13298;48.792;9.154;2022-12-07T00:44:22;3.00;99.90
25342;DHT22;13298;48.792;9.154;2022-12-07T00:46:48;3.00;99.90
25342;DHT22;13298;48.792;9.154;2022-12-07T00:49:14;3.00;99.90
25342;DHT22;13298;48.792;9.154;2022-12-07T00:51:39;3.00;99.90
25342;DHT22;13298;48.792;9.154;2022-12-07T00:54:05;2.90;99.90
25342;DHT22;13298;48.792;9.154;2022-12-07T00:56:30;2.90;99.90
25342;DHT22;13298;48.792;9.154;2022-12-07T00:58:57;2.90;99.90
25342;DHT22;13298;48.792;9.154;2022-12-07T01:01:25;2.90;99.90
25342;DHT22;13298;48.792;9.154;2022-12-07T01:03:52;2.80;99.90
25342;DHT22;13298;48.792;9.154;2022-12-07T01:06:18;2.80;99.90
25342;DHT22;13298;48.792;9.154;2022-12-07T01:08:44;2.80;99.90
25342;DHT22;13298;48.792;9.154;2022-12-07T01:11:13;2.80;99.90
25342;DHT22;13298;48.792;9.154;2022-12-07T01:13:40;2.70;99.90
25342;DHT22;13298;48.792;9.154;2022-12-07T01:16:06;2.70;99.90
25342;DHT22;13298;48.792;9.154;2022-12-07T01:18:33;2.70;99.90
25342;DHT22;13298;48.792;9.154;2022-12-07T01:23:30;2.60;99.90
25342;DHT22;13298;48.792;9.154;2022-12-07T01:25:57;2.60;99.90
25342;DHT22;13298;48.792;9.154;2022-12-07T01:28:24;2.60;99.90
25342;DHT22;13298;48.792;9.154;2022-12-07T01:30:59;2.70;99.90
25342;DHT22;13298;48.792;9.154;2022-12-07T01:33:28;2.60;99.90
25342;DHT22;13298;48.792;9.154;2022-12-07T01:36:06;2.60;99.90
25342;DHT22;13298;48.792;9.154;2022-12-07T01:38:34;2.60;99.90
25342;DHT22;13298;48.792;9.154;2022-12-07T01:41:00;2.60;99.90
25342;DHT22;13298;48.792;9.154;2022-12-07T01:43:26;2.60;99.90
25342;DHT22;13298;48.792;9.154;2022-12-07T01:45:53;2.60;99.90
25342;DHT22;13298;48.792;9.154;2022-12-07T01:48:21;2.60;99.90
25342;DHT22;13298;48.792;9.154;2022-12-07T01:50:51;2.60;99.90
25342;DHT22;13298;48.792;9.154;2022-12-07T01:53:18;2.60;99.90
25342;DHT22;13298;48.792;9.154;2022-12-07T01:55:45;2.60;99.90
25342;DHT22;13298;48.792;9.154;2022-12-07T01:58:11;2.60;99.90
25342;DHT22;13298;48.792;9.154;2022-12-07T02:00:38;2.60;99.90
25342;DHT22;13298;48.792;9.154;2022-12-07T02:03:08;2.60;99.90
25342;DHT22;13298;48.792;9.154;2022-12-07T02:05:37;2.60;99.90
25342;DHT22;13298;48.792;9.154;2022-12-07T02:08:04;2.60;99.90
25342;DHT22;13298;48.792;9.154;2022-12-07T02:10:30;2.60;99.90
25342;DHT22;13298;48.792;9.154;2022-12-07T02:13:01;2.60;99.90
25342;DHT22;13298;48.792;9.154;2022-12-07T02:18:44;2.60;99.90
25342;DHT22;13298;48.792;9.154;2022-12-07T02:26:41;2.60;99.90
25342;DHT22;13298;48.792;9.154;2022-12-07T02:31:51;2.60;99.90
25342;DHT22;13298;48.792;9.154;2022-12-07T02:34:43;2.60;99.90
25342;DHT22;13298;48.792;9.154;2022-12-07T02:37:34;2.60;99.90
25342;DHT22;13298;48.792;9.154;2022-12-07T02:40:19;2.60;99.90
25342;DHT22;13298;48.792;9.154;2022-12-07T02:43:07;2.60;99.90
25342;DHT22;13298;48.792;9.154;2022-12-07T02:45:40;2.60;99.90
25342;DHT22;13298;48.792;9.154;2022-12-07T02:48:07;2.60;99.90
25342;DHT22;13298;48.792;9.154;2022-12-07T02:50:34;2.60;99.90
25342;DHT22;13298;48.792;9.154;2022-12-07T02:52:59;2.60;99.90
25342;DHT22;13298;48.792;9.154;2022-12-07T02:55:27;2.60;99.90
25342;DHT22;13298;48.792;9.154;2022-12-07T03:00:52;2.60;99.90
25342;DHT22;13298;48.792;9.154;2022-12-07T03:03:39;2.60;99.90
25342;DHT22;13298;48.792;9.154;2022-12-07T03:08:48;2.60;99.90
25342;DHT22;13298;48.792;9.154;2022-12-07T03:11:25;2.60;99.90
25342;DHT22;13298;48.792;9.154;2022-12-07T03:14:13;2.60;99.90
25342;DHT22;13298;48.792;9.154;2022-12-07T03:16:55;2.60;99.90
25342;DHT22;13298;48.792;9.154;2022-12-07T03:19:29;2.60;99.90
25342;DHT22;13298;48.792;9.154;2022-12-07T03:21:58;2.60;99.90
25342;DHT22;13298;48.792;9.154;2022-12-07T03:24:27;2.60;99.90
25342;DHT22;13298;48.792;9.154;2022-12-07T03:26:56;2.60;99.90
25342;DHT22;13298;48.792;9.154;2022-12-07T03:29:30;2.60;99.90
25342;DHT22;13298;48.792;9.154;2022-12-07T03:32:00;2.60;99.90
25342;DHT22;13298;48.792;9.154;2022-12-07T03:34:46;2.60;99.90
25342;DHT22;13298;48.792;9.154;2022-12-07T03:37:17;2.60;99.90
25342;DHT22;13298;48.792;9.154;2022-12-07T03:39:48;2.60;99.90
25342;DHT22;13298;48.792;9.154;2022-12-07T03:42:19;2.60;99.90
25342;DHT22;13298;48.792;9.154;2022-12-07T03:44:45;2.60;99.90
25342;DHT22;13298;48.792;9.154;2022-12-07T03:52:14;2.60;99.90
25342;DHT22;13298;48.792;9.154;2022-12-07T03:57:11;2.50;99.90
25342;DHT22;13298;48.792;9.154;2022-12-07T03:59:37;2.50;99.90
25342;DHT22;13298;48.792;9.154;2022-12-07T04:02:04;2.40;99.90
25342;DHT22;13298;48.792;9.154;2022-12-07T04:04:31;2.40;99.90
25342;DHT22;13298;48.792;9.154;2022-12-07T04:06:56;2.40;99.90
25342;DHT22;13298;48.792;9.154;2022-12-07T04:09:22;2.40;99.90
25342;DHT22;13298;48.792;9.154;2022-12-07T04:11:48;2.30;99.90
25342;DHT22;13298;48.792;9.154;2022-12-07T04:14:13;2.20;99.90
25342;DHT22;13298;48.792;9.154;2022-12-07T04:16:46;2.20;99.90
25342;DHT22;13298;48.792;9.154;2022-12-07T04:19:16;2.20;99.90
25342;DHT22;13298;48.792;9.154;2022-12-07T04:21:43;2.20;99.90
25342;DHT22;13298;48.792;9.154;2022-12-07T04:24:08;2.20;99.90
25342;DHT22;13298;48.792;9.154;2022-12-07T04:26:34;2.20;99.90
25342;DHT22;13298;48.792;9.154;2022-12-07T04:29:00;2.20;99.90
25342;DHT22;13298;48.792;9.154;2022-12-07T04:31:25;2.20;99.90
25342;DHT22;13298;48.792;9.154;2022-12-07T04:33:51;2.20;99.90
25342;DHT22;13298;48.792;9.154;2022-12-07T04:36:16;2.10;99.90
25342;DHT22;13298;48.792;9.154;2022-12-07T04:38:42;2.10;99.90
25342;DHT22;13298;48.792;9.154;2022-12-07T04:41:08;2.10;99.90
25342;DHT22;13298;48.792;9.154;2022-12-07T04:43:34;2.10;99.90
25342;DHT22;13298;48.792;9.154;2022-12-07T04:46:00;2.20;99.90
25342;DHT22;13298;48.792;9.154;2022-12-07T04:48:26;2.20;99.90
25342;DHT22;13298;48.792;9.154;2022-12-07T04:50:52;2.20;99.90
25342;DHT22;13298;48.792;9.154;2022-12-07T04:53:18;2.20;99.90
25342;DHT22;13298;48.792;9.154;2022-12-07T04:55:44;2.20;99.90
25342;DHT22;13298;48.792;9.154;2022-12-07T04:58:10;2.20;99.90
25342;DHT22;13298;48.792;9.154;2022-12-07T05:00:37;2.20;99.90
25342;DHT22;13298;48.792;9.154;2022-12-07T05:03:03;2.20;99.90
25342;DHT22;13298;48.792;9.154;2022-12-07T05:05:28;2.20;99.90
25342;DHT22;13298;48.792;9.154;2022-12-07T05:07:54;2.20;99.90
25342;DHT22;13298;48.792;9.154;2022-12-07T05:10:20;2.20;99.90
25342;DHT22;13298;48.792;9.154;2022-12-07T05:12:45;2.20;99.90
25342;DHT22;13298;48.792;9.154;2022-12-07T05:15:11;2.20;99.90
25342;DHT22;13298;48.792;9.154;2022-12-07T05:17:38;2.00;99.90
25342;DHT22;13298;48.792;9.154;2022-12-07T05:20:03;2.00;99.90
25342;DHT22;13298;48.792;9.154;2022-12-07T05:22:30;2.00;99.90
25342;DHT22;13298;48.792;9.154;2022-12-07T05:24:55;1.90;99.90
25342;DHT22;13298;48.792;9.154;2022-12-07T05:27:21;1.80;99.90
25342;DHT22;13298;48.792;9.154;2022-12-07T05:29:47;1.70;99.90
25342;DHT22;13298;48.792;9.154;2022-12-07T05:32:12;1.60;99.90
25342;DHT22;13298;48.792;9.154;2022-12-07T05:34:38;1.60;99.90
25342;DHT22;13298;48.792;9.154;2022-12-07T05:37:03;1.50;99.90
25342;DHT22;13298;48.792;9.154;2022-12-07T05:39:29;1.40;99.90
25342;DHT22;13298;48.792;9.154;2022-12-07T05:41:55;1.30;99.90
25342;DHT22;13298;48.792;9.154;2022-12-07T05:44:39;1.30;99.90
25342;DHT22;13298;48.792;9.154;2022-12-07T05:47:05;1.30;99.90
25342;DHT22;13298;48.792;9.154;2022-12-07T05:49:31;1.30;99.90
25342;DHT22;13298;48.792;9.154;2022-12-07T05:51:56;1.30;99.90
25342;DHT22;13298;48.792;9.154;2022-12-07T05:54:22;1.30;99.90
25342;DHT22;13298;48.792;9.154;2022-12-07T05:56:48;1.30;99.90
25342;DHT22;13298;48.792;9.154;2022-12-07T05:59:13;1.40;99.90
25342;DHT22;13298;48.792;9.154;2022-12-07T06:01:56;1.50;99.90
25342;DHT22;13298;48.792;9.154;2022-12-07T06:04:29;1.50;99.90
25342;DHT22;13298;48.792;9.154;2022-12-07T06:06:57;1.60;99.90
25342;DHT22;13298;48.792;9.154;2022-12-07T06:09:23;1.70;99.90
25342;DHT22;13298;48.792;9.154;2022-12-07T06:11:50;1.70;99.90
25342;DHT22;13298;48.792;9.154;2022-12-07T06:14:34;1.70;99.90
25342;DHT22;13298;48.792;9.154;2022-12-07T06:17:00;1.80;99.90
25342;DHT22;13298;48.792;9.154;2022-12-07T06:19:25;1.80;99.90
25342;DHT22;13298;48.792;9.154;2022-12-07T06:21:51;1.90;99.90
25342;DHT22;13298;48.792;9.154;2022-12-07T06:24:17;1.90;99.90
25342;DHT22;13298;48.792;9.154;2022-12-07T06:26:43;2.00;99.90
25342;DHT22;13298;48.792;9.154;2022-12-07T06:29:09;2.00;99.90
25342;DHT22;13298;48.792;9.154;2022-12-07T06:31:35;2.00;99.90
25342;DHT22;13298;48.792;9.154;2022-12-07T06:34:02;2.10;99.90
25342;DHT22;13298;48.792;9.154;2022-12-07T06:36:35;2.10;99.90
25342;DHT22;13298;48.792;9.154;2022-12-07T06:39:01;2.10;99.90
25342;DHT22;13298;48.792;9.154;2022-12-07T06:41:28;2.10;99.90
25342;DHT22;13298;48.792;9.154;2022-12-07T06:43:53;2.10;99.90
25342;DHT22;13298;48.792;9.154;2022-12-07T06:46:19;2.10;99.90
25342;DHT22;13298;48.792;9.154;2022-12-07T06:48:45;2.00;99.90
25342;DHT22;13298;48.792;9.154;2022-12-07T06:51:10;2.00;99.90
25342;DHT22;13298;48.792;9.154;2022-12-07T06:53:36;2.00;99.90
25342;DHT22;13298;48.792;9.154;2022-12-07T06:56:02;2.00;99.90
25342;DHT22;13298;48.792;9.154;2022-12-07T06:58:28;2.00;99.90
25342;DHT22;13298;48.792;9.154;2022-12-07T07:00:54;2.00;99.90
25342;DHT22;13298;48.792;9.154;2022-12-07T07:03:19;2.00;99.90
25342;DHT22;13298;48.792;9.154;2022-12-07T07:05:45;2.10;99.90
25342;DHT22;13298;48.792;9.154;2022-12-07T07:08:11;2.10;99.90
25342;DHT22;13298;48.792;9.154;2022-12-07T07:10:37;2.20;99.90
25342;DHT22;13298;48.792;9.154;2022-12-07T07:13:03;2.20;99.90
25342;DHT22;13298;48.792;9.154;2022-12-07T07:15:29;2.20;99.90
25342;DHT22;13298;48.792;9.154;2022-12-07T07:17:54;2.30;99.90
25342;DHT22;13298;48.792;9.154;2022-12-07T07:20:20;2.30;99.90
25342;DHT22;13298;48.792;9.154;2022-12-07T07:22:46;2.30;99.90
25342;DHT22;13298;48.792;9.154;2022-12-07T07:25:11;2.40;99.90
25342;DHT22;13298;48.792;9.154;2022-12-07T07:27:37;2.40;99.90
25342;DHT22;13298;48.792;9.154;2022-12-07T07:30:03;2.50;99.90
25342;DHT22;13298;48.792;9.154;2022-12-07T07:32:29;2.50;99.90
25342;DHT22;13298;48.792;9.154;2022-12-07T07:34:55;2.50;99.90
25342;DHT22;13298;48.792;9.154;2022-12-07T07:37:21;2.60;99.90
25342;DHT22;13298;48.792;9.154;2022-12-07T07:39:46;2.60;99.90
25342;DHT22;13298;48.792;9.154;2022-12-07T07:42:12;2.60;99.90
25342;DHT22;13298;48.792;9.154;2022-12-07T07:44:37;2.70;99.90
25342;DHT22;13298;48.792;9.154;2022-12-07T07:47:03;2.70;99.90
25342;DHT22;13298;48.792;9.154;2022-12-07T07:49:29;2.80;99.90
25342;DHT22;13298;48.792;9.154;2022-12-07T07:51:54;2.80;99.90
25342;DHT22;13298;48.792;9.154;2022-12-07T07:54:20;2.80;99.90
25342;DHT22;13298;48.792;9.154;2022-12-07T07:56:45;2.80;99.90
25342;DHT22;13298;48.792;9.154;2022-12-07T07:59:11;2.90;99.90
25342;DHT22;13298;48.792;9.154;2022-12-07T08:01:37;3.00;99.90
25342;DHT22;13298;48.792;9.154;2022-12-07T08:04:02;3.00;99.90
25342;DHT22;13298;48.792;9.154;2022-12-07T08:06:28;3.00;99.90
25342;DHT22;13298;48.792;9.154;2022-12-07T08:08:53;3.10;99.90
25342;DHT22;13298;48.792;9.154;2022-12-07T08:11:19;3.20;99.90
25342;DHT22;13298;48.792;9.154;2022-12-07T08:13:45;3.20;99.90
25342;DHT22;13298;48.792;9.154;2022-12-07T08:16:14;3.20;99.90
25342;DHT22;13298;48.792;9.154;2022-12-07T08:18:41;3.30;99.90
25342;DHT22;13298;48.792;9.154;2022-12-07T08:21:07;3.30;99.90
25342;DHT22;13298;48.792;9.154;2022-12-07T08:23:36;3.30;99.90
25342;DHT22;13298;48.792;9.154;2022-12-07T08:26:02;3.40;99.90
25342;DHT22;13298;48.792;9.154;2022-12-07T08:28:29;3.40;99.90
25342;DHT22;13298;48.792;9.154;2022-12-07T08:30:59;3.40;99.90
25342;DHT22;13298;48.792;9.154;2022-12-07T08:33:25;3.50;99.90
25342;DHT22;13298;48.792;9.154;2022-12-07T08:35:51;3.50;99.90
25342;DHT22;13298;48.792;9.154;2022-12-07T08:38:16;3.50;99.90
25342;DHT22;13298;48.792;9.154;2022-12-07T08:40:42;3.60;99.90
25342;DHT22;13298;48.792;9.154;2022-12-07T08:43:08;3.60;99.90
25342;DHT22;13298;48.792;9.154;2022-12-07T08:45:33;3.70;99.90
25342;DHT22;13298;48.792;9.154;2022-12-07T08:48:07;3.70;99.90
25342;DHT22;13298;48.792;9.154;2022-12-07T08:50:35;3.80;99.90
25342;DHT22;13298;48.792;9.154;2022-12-07T08:53:01;3.90;99.90
25342;DHT22;13298;48.792;9.154;2022-12-07T08:55:28;4.00;99.90
25342;DHT22;13298;48.792;9.154;2022-12-07T08:57:54;4.00;99.90
25342;DHT22;13298;48.792;9.154;2022-12-07T09:00:20;4.10;99.90
25342;DHT22;13298;48.792;9.154;2022-12-07T09:02:45;4.10;99.90
25342;DHT22;13298;48.792;9.154;2022-12-07T09:05:11;4.20;99.90
25342;DHT22;13298;48.792;9.154;2022-12-07T09:07:39;4.30;99.90
25342;DHT22;13298;48.792;9.154;2022-12-07T09:10:06;4.40;99.90
25342;DHT22;13298;48.792;9.154;2022-12-07T09:12:32;4.50;99.90
25342;DHT22;13298;48.792;9.154;2022-12-07T09:14:58;4.50;99.90
25342;DHT22;13298;48.792;9.154;2022-12-07T09:17:26;4.60;99.90
25342;DHT22;13298;48.792;9.154;2022-12-07T09:19:51;4.70;99.90
25342;DHT22;13298;48.792;9.154;2022-12-07T09:22:17;4.80;99.90
25342;DHT22;13298;48.792;9.154;2022-12-07T09:24:43;4.90;99.90
25342;DHT22;13298;48.792;9.154;2022-12-07T09:27:11;4.90;99.90
25342;DHT22;13298;48.792;9.154;2022-12-07T09:29:36;4.90;99.90
25342;DHT22;13298;48.792;9.154;2022-12-07T09:32:02;5.00;99.90
25342;DHT22;13298;48.792;9.154;2022-12-07T09:34:30;5.10;99.90
25342;DHT22;13298;48.792;9.154;2022-12-07T09:36:56;5.10;99.90
25342;DHT22;13298;48.792;9.154;2022-12-07T09:39:22;5.20;99.90
25342;DHT22;13298;48.792;9.154;2022-12-07T09:41:47;5.20;99.90
25342;DHT22;13298;48.792;9.154;2022-12-07T09:44:14;5.20;99.90
25342;DHT22;13298;48.792;9.154;2022-12-07T09:46:44;5.30;99.90
25342;DHT22;13298;48.792;9.154;2022-12-07T09:49:11;5.30;99.90
25342;DHT22;13298;48.792;9.154;2022-12-07T09:51:42;5.20;99.90
25342;DHT22;13298;48.792;9.154;2022-12-07T09:54:08;5.30;99.90
25342;DHT22;13298;48.792;9.154;2022-12-07T09:56:34;5.30;99.90
25342;DHT22;13298;48.792;9.154;2022-12-07T09:59:01;5.30;99.90
25342;DHT22;13298;48.792;9.154;2022-12-07T10:01:29;5.30;99.90
25342;DHT22;13298;48.792;9.154;2022-12-07T10:04:12;5.30;99.90
25342;DHT22;13298;48.792;9.154;2022-12-07T10:06:40;5.40;99.90
25342;DHT22;13298;48.792;9.154;2022-12-07T10:09:10;5.40;99.90
25342;DHT22;13298;48.792;9.154;2022-12-07T10:11:57;5.50;99.90
25342;DHT22;13298;48.792;9.154;2022-12-07T10:14:27;5.50;99.90
25342;DHT22;13298;48.792;9.154;2022-12-07T10:16:54;5.50;99.90
25342;DHT22;13298;48.792;9.154;2022-12-07T10:24:35;5.60;99.90
25342;DHT22;13298;48.792;9.154;2022-12-07T10:27:02;5.70;99.90
25342;DHT22;13298;48.792;9.154;2022-12-07T10:29:32;5.70;99.90
25342;DHT22;13298;48.792;9.154;2022-12-07T10:32:04;5.70;99.90
25342;DHT22;13298;48.792;9.154;2022-12-07T10:34:50;5.70;99.90
25342;DHT22;13298;48.792;9.154;2022-12-07T10:37:19;5.70;99.90
25342;DHT22;13298;48.792;9.154;2022-12-07T10:39:46;5.80;99.90
25342;DHT22;13298;48.792;9.154;2022-12-07T10:44:43;5.90;99.90
25342;DHT22;13298;48.792;9.154;2022-12-07T10:47:13;5.90;99.90
25342;DHT22;13298;48.792;9.154;2022-12-07T10:52:18;5.80;99.90
25342;DHT22;13298;48.792;9.154;2022-12-07T11:00:23;5.70;99.90
25342;DHT22;13298;48.792;9.154;2022-12-07T11:08:09;5.40;99.90
25342;DHT22;13298;48.792;9.154;2022-12-07T11:10:52;5.30;99.90
25342;DHT22;13298;48.792;9.154;2022-12-07T11:16:04;5.30;99.90
25342;DHT22;13298;48.792;9.154;2022-12-07T11:24:30;5.40;99.90
25342;DHT22;13298;48.792;9.154;2022-12-07T11:27:06;5.40;99.90
25342;DHT22;13298;48.792;9.154;2022-12-07T11:38:09;5.30;99.90
25342;DHT22;13298;48.792;9.154;2022-12-07T11:40:37;5.20;99.90
25342;DHT22;13298;48.792;9.154;2022-12-07T11:43:21;5.20;99.90
25342;DHT22;13298;48.792;9.154;2022-12-07T11:45:52;5.20;99.90
25342;DHT22;13298;48.792;9.154;2022-12-07T11:48:43;5.20;99.90
25342;DHT22;13298;48.792;9.154;2022-12-07T11:51:29;5.20;99.90
25342;DHT22;13298;48.792;9.154;2022-12-07T11:53:59;5.20;99.90
25342;DHT22;13298;48.792;9.154;2022-12-07T11:56:49;5.30;99.90
25342;DHT22;13298;48.792;9.154;2022-12-07T11:59:17;5.40;99.90
25342;DHT22;13298;48.792;9.154;2022-12-07T12:01:50;5.40;99.90
25342;DHT22;13298;48.792;9.154;2022-12-07T12:04:23;5.30;99.90
25342;DHT22;13298;48.792;9.154;2022-12-07T12:06:50;5.30;99.90
25342;DHT22;13298;48.792;9.154;2022-12-07T12:09:21;5.30;99.90
25342;DHT22;13298;48.792;9.154;2022-12-07T12:20:31;5.40;99.90
25342;DHT22;13298;48.792;9.154;2022-12-07T12:23:14;5.40;99.90
25342;DHT22;13298;48.792;9.154;2022-12-07T12:25:43;5.30;99.90
25342;DHT22;13298;48.792;9.154;2022-12-07T12:28:22;5.20;99.90
25342;DHT22;13298;48.792;9.154;2022-12-07T12:31:04;5.10;99.90
25342;DHT22;13298;48.792;9.154;2022-12-07T12:33:33;5.00;99.90
25342;DHT22;13298;48.792;9.154;2022-12-07T12:39:26;4.90;99.90
25342;DHT22;13298;48.792;9.154;2022-12-07T12:51:44;5.10;99.90
25342;DHT22;13298;48.792;9.154;2022-12-07T12:56:52;5.20;99.90
25342;DHT22;13298;48.792;9.154;2022-12-07T13:02:20;5.20;99.90
25342;DHT22;13298;48.792;9.154;2022-12-07T13:04:55;5.30;99.90
25342;DHT22;13298;48.792;9.154;2022-12-07T13:18:25;5.30;99.90
25342;DHT22;13298;48.792;9.154;2022-12-07T13:26:20;5.30;99.90
25342;DHT22;13298;48.792;9.154;2022-12-07T13:37:04;5.10;99.90
25342;DHT22;13298;48.792;9.154;2022-12-07T13:39:44;5.00;99.90
25342;DHT22;13298;48.792;9.154;2022-12-07T13:42:18;5.10;99.90
25342;DHT22;13298;48.792;9.154;2022-12-07T13:44:51;5.10;99.90
25342;DHT22;13298;48.792;9.154;2022-12-07T13:47:19;5.00;99.90
25342;DHT22;13298;48.792;9.154;2022-12-07T13:49:55;5.00;99.90
25342;DHT22;13298;48.792;9.154;2022-12-07T13:52:26;4.90;99.90
25342;DHT22;13298;48.792;9.154;2022-12-07T13:57:31;4.90;99.90
25342;DHT22;13298;48.792;9.154;2022-12-07T14:00:06;4.80;99.90
25342;DHT22;13298;48.792;9.154;2022-12-07T14:02:53;4.90;99.90
25342;DHT22;13298;48.792;9.154;2022-12-07T14:05:31;4.80;99.90
25342;DHT22;13298;48.792;9.154;2022-12-07T14:10:28;4.80;99.90
25342;DHT22;13298;48.792;9.154;2022-12-07T14:12:56;4.90;99.90
25342;DHT22;13298;48.792;9.154;2022-12-07T14:15:23;5.00;99.90
25342;DHT22;13298;48.792;9.154;2022-12-07T14:17:51;5.10;99.90
25342;DHT22;13298;48.792;9.154;2022-12-07T14:23:24;5.00;99.90
25342;DHT22;13298;48.792;9.154;2022-12-07T14:25:51;4.90;99.90
25342;DHT22;13298;48.792;9.154;2022-12-07T14:28:25;4.90;99.90
25342;DHT22;13298;48.792;9.154;2022-12-07T14:30:54;4.80;99.90
25342;DHT22;13298;48.792;9.154;2022-12-07T14:33:20;4.70;99.90
25342;DHT22;13298;48.792;9.154;2022-12-07T14:35:46;4.60;99.90
25342;DHT22;13298;48.792;9.154;2022-12-07T14:38:12;4.60;99.90
25342;DHT22;13298;48.792;9.154;2022-12-07T14:40:37;4.60;99.90
25342;DHT22;13298;48.792;9.154;2022-12-07T14:43:04;4.60;99.90
25342;DHT22;13298;48.792;9.154;2022-12-07T14:45:32;4.60;99.90
25342;DHT22;13298;48.792;9.154;2022-12-07T14:47:57;4.60;99.90
25342;DHT22;13298;48.792;9.154;2022-12-07T14:50:23;4.50;99.90
25342;DHT22;13298;48.792;9.154;2022-12-07T14:52:56;4.50;99.90
25342;DHT22;13298;48.792;9.154;2022-12-07T14:55:28;4.50;99.90
25342;DHT22;13298;48.792;9.154;2022-12-07T14:57:55;4.40;99.90
25342;DHT22;13298;48.792;9.154;2022-12-07T15:00:22;4.40;99.90
25342;DHT22;13298;48.792;9.154;2022-12-07T15:02:49;4.40;99.90
25342;DHT22;13298;48.792;9.154;2022-12-07T15:05:15;4.30;99.90
25342;DHT22;13298;48.792;9.154;2022-12-07T15:07:41;4.20;99.90
25342;DHT22;13298;48.792;9.154;2022-12-07T15:10:13;4.20;99.90
25342;DHT22;13298;48.792;9.154;2022-12-07T15:12:41;4.20;99.90
25342;DHT22;13298;48.792;9.154;2022-12-07T15:15:07;4.10;99.90
25342;DHT22;13298;48.792;9.154;2022-12-07T15:17:33;4.10;99.90
25342;DHT22;13298;48.792;9.154;2022-12-07T15:19:59;4.10;99.90
25342;DHT22;13298;48.792;9.154;2022-12-07T15:22:24;4.00;99.90
25342;DHT22;13298;48.792;9.154;2022-12-07T15:24:50;3.90;99.90
25342;DHT22;13298;48.792;9.154;2022-12-07T15:27:15;3.90;99.90
25342;DHT22;13298;48.792;9.154;2022-12-07T15:29:41;3.90;99.90
25342;DHT22;13298;48.792;9.154;2022-12-07T15:32:07;3.90;99.90
25342;DHT22;13298;48.792;9.154;2022-12-07T15:34:32;3.80;99.90
25342;DHT22;13298;48.792;9.154;2022-12-07T15:36:58;3.80;99.90
25342;DHT22;13298;48.792;9.154;2022-12-07T15:39:23;3.70;99.90
25342;DHT22;13298;48.792;9.154;2022-12-07T15:41:49;3.70;99.90
25342;DHT22;13298;48.792;9.154;2022-12-07T15:44:15;3.70;99.90
25342;DHT22;13298;48.792;9.154;2022-12-07T15:46:59;3.60;99.90
25342;DHT22;13298;48.792;9.154;2022-12-07T15:49:25;3.60;99.90
25342;DHT22;13298;48.792;9.154;2022-12-07T15:51:51;3.60;99.90
25342;DHT22;13298;48.792;9.154;2022-12-07T15:54:21;3.50;99.90
25342;DHT22;13298;48.792;9.154;2022-12-07T15:56:50;3.40;99.90
25342;DHT22;13298;48.792;9.154;2022-12-07T15:59:16;3.30;99.90
25342;DHT22;13298;48.792;9.154;2022-12-07T16:01:42;3.20;99.90
25342;DHT22;13298;48.792;9.154;2022-12-07T16:04:08;3.10;99.90
25342;DHT22;13298;48.792;9.154;2022-12-07T16:06:34;3.10;99.90
25342;DHT22;13298;48.792;9.154;2022-12-07T16:09:00;3.00;99.90
25342;DHT22;13298;48.792;9.154;2022-12-07T16:11:26;3.00;99.90
25342;DHT22;13298;48.792;9.154;2022-12-07T16:13:51;3.00;99.90
25342;DHT22;13298;48.792;9.154;2022-12-07T16:16:17;3.00;99.90
25342;DHT22;13298;48.792;9.154;2022-12-07T16:18:44;3.00;99.90
25342;DHT22;13298;48.792;9.154;2022-12-07T16:21:10;3.00;99.90
25342;DHT22;13298;48.792;9.154;2022-12-07T16:23:36;3.00;99.90
25342;DHT22;13298;48.792;9.154;2022-12-07T16:26:05;3.00;99.90
25342;DHT22;13298;48.792;9.154;2022-12-07T16:28:31;2.90;99.90
25342;DHT22;13298;48.792;9.154;2022-12-07T16:31:04;2.90;99.90
25342;DHT22;13298;48.792;9.154;2022-12-07T16:33:33;2.90;99.90
25342;DHT22;13298;48.792;9.154;2022-12-07T16:36:00;2.80;99.90
25342;DHT22;13298;48.792;9.154;2022-12-07T16:38:26;2.70;99.90
25342;DHT22;13298;48.792;9.154;2022-12-07T16:40:52;2.60;99.90
25342;DHT22;13298;48.792;9.154;2022-12-07T16:43:18;2.50;99.90
25342;DHT22;13298;48.792;9.154;2022-12-07T16:45:45;2.40;99.90
25342;DHT22;13298;48.792;9.154;2022-12-07T16:48:11;2.30;99.90
25342;DHT22;13298;48.792;9.154;2022-12-07T16:50:38;2.20;99.90
25342;DHT22;13298;48.792;9.154;2022-12-07T16:53:05;2.10;99.90
25342;DHT22;13298;48.792;9.154;2022-12-07T16:55:31;2.00;99.90
25342;DHT22;13298;48.792;9.154;2022-12-07T16:57:58;1.90;99.90
25342;DHT22;13298;48.792;9.154;2022-12-07T17:00:24;1.80;99.90
25342;DHT22;13298;48.792;9.154;2022-12-07T17:02:49;1.70;99.90
25342;DHT22;13298;48.792;9.154;2022-12-07T17:05:15;1.70;99.90
25342;DHT22;13298;48.792;9.154;2022-12-07T17:07:41;1.70;99.90
25342;DHT22;13298;48.792;9.154;2022-12-07T17:10:06;1.70;99.90
25342;DHT22;13298;48.792;9.154;2022-12-07T17:12:32;1.80;99.90
25342;DHT22;13298;48.792;9.154;2022-12-07T17:14:58;1.80;99.90
25342;DHT22;13298;48.792;9.154;2022-12-07T17:17:45;1.90;99.90
25342;DHT22;13298;48.792;9.154;2022-12-07T17:20:12;1.90;99.90
25342;DHT22;13298;48.792;9.154;2022-12-07T17:22:38;2.00;99.90
25342;DHT22;13298;48.792;9.154;2022-12-07T17:25:04;2.10;99.90
25342;DHT22;13298;48.792;9.154;2022-12-07T17:27:30;2.20;99.90
25342;DHT22;13298;48.792;9.154;2022-12-07T17:29:55;2.20;99.90
25342;DHT22;13298;48.792;9.154;2022-12-07T17:32:21;2.30;99.90
25342;DHT22;13298;48.792;9.154;2022-12-07T17:34:47;2.40;99.90
25342;DHT22;13298;48.792;9.154;2022-12-07T17:37:12;2.40;99.90
25342;DHT22;13298;48.792;9.154;2022-12-07T17:39:38;2.40;99.90
25342;DHT22;13298;48.792;9.154;2022-12-07T17:42:04;2.40;99.90
25342;DHT22;13298;48.792;9.154;2022-12-07T17:44:48;2.50;99.90
25342;DHT22;13298;48.792;9.154;2022-12-07T17:47:14;2.50;99.90
25342;DHT22;13298;48.792;9.154;2022-12-07T17:49:42;2.50;99.90
25342;DHT22;13298;48.792;9.154;2022-12-07T17:52:09;2.60;99.90
25342;DHT22;13298;48.792;9.154;2022-12-07T17:54:53;2.60;99.90
25342;DHT22;13298;48.792;9.154;2022-12-07T17:57:19;2.60;99.90